createdAt,value
2024-04-10T00:00:01.347Z,456.00
2024-04-10T00:01:06.783Z,454.00
2024-04-10T00:02:01.410Z,453.00
2024-04-10T00:03:01.719Z,455.00
2024-04-10T00:04:22.557Z,457.00
2024-04-10T00:05:01.829Z,457.00
2024-04-10T00:06:01.554Z,457.00
2024-04-10T00:07:01.446Z,457.00
2024-04-10T00:08:01.546Z,457.00
2024-04-10T00:09:01.465Z,458.00
2024-04-10T00:10:01.501Z,460.00
2024-04-10T00:11:01.521Z,459.00
2024-04-10T00:12:01.849Z,461.00
2024-04-10T00:13:01.455Z,460.00
2024-04-10T00:14:01.595Z,459.00
2024-04-10T00:15:01.465Z,459.00
2024-04-10T00:16:01.471Z,459.00
2024-04-10T00:17:01.535Z,458.00
2024-04-10T00:18:01.558Z,458.00
2024-04-10T00:19:01.704Z,457.00
2024-04-10T00:20:01.568Z,458.00
2024-04-10T00:21:01.469Z,459.00
2024-04-10T00:22:01.465Z,459.00
2024-04-10T00:23:01.495Z,458.00
2024-04-10T00:24:01.491Z,458.00
2024-04-10T00:25:01.482Z,461.00
2024-04-10T00:26:16.295Z,462.00
2024-04-10T00:27:01.486Z,462.00
2024-04-10T00:28:01.479Z,460.00
2024-04-10T00:29:19.815Z,458.00
2024-04-10T00:30:01.489Z,456.00
2024-04-10T00:31:01.502Z,458.00
2024-04-10T00:32:01.519Z,456.00
2024-04-10T00:33:01.523Z,459.00
2024-04-10T00:34:01.590Z,460.00
2024-04-10T00:35:01.517Z,459.00
2024-04-10T00:36:01.546Z,459.00
2024-04-10T00:37:01.507Z,459.00
2024-04-10T00:38:01.554Z,457.00
2024-04-10T00:39:01.499Z,457.00
2024-04-10T00:40:01.504Z,457.00
2024-04-10T00:41:01.544Z,458.00
2024-04-10T00:42:01.515Z,458.00
2024-04-10T00:43:01.522Z,459.00
2024-04-10T00:44:01.625Z,460.00
2024-04-10T00:45:01.518Z,460.00
2024-04-10T00:46:01.520Z,457.00
2024-04-10T00:47:01.671Z,456.00
2024-04-10T00:48:08.312Z,459.00
2024-04-10T00:49:01.675Z,456.00
2024-04-10T00:50:01.572Z,455.00
2024-04-10T00:51:12.239Z,455.00
2024-04-10T00:52:01.532Z,457.00
2024-04-10T00:53:01.564Z,456.00
2024-04-10T00:54:22.546Z,454.00
2024-04-10T00:55:01.549Z,453.00
2024-04-10T00:56:01.579Z,454.00
2024-04-10T00:57:22.552Z,455.00
2024-04-10T00:58:01.552Z,455.00
2024-04-10T00:59:01.584Z,456.00
2024-04-10T01:00:01.570Z,457.00
2024-04-10T01:01:01.596Z,457.00
2024-04-10T01:02:01.621Z,457.00
2024-04-10T01:03:01.570Z,456.00
2024-04-10T01:04:01.704Z,457.00
2024-04-10T01:05:01.689Z,457.00
2024-04-10T01:06:01.566Z,457.00
2024-04-10T01:07:01.561Z,457.00
2024-04-10T01:08:01.581Z,456.00
2024-04-10T01:09:01.562Z,457.00
2024-04-10T01:10:01.564Z,455.00
2024-04-10T01:11:01.744Z,452.00
2024-04-10T01:12:01.616Z,450.00
2024-04-10T01:13:04.245Z,450.00
2024-04-10T01:14:01.700Z,450.00
2024-04-10T01:15:01.571Z,449.00
2024-04-10T01:16:15.771Z,448.00
2024-04-10T01:17:01.937Z,449.00
2024-04-10T01:18:01.821Z,448.00
2024-04-10T01:19:22.770Z,446.00
2024-04-10T01:20:01.799Z,446.00
2024-04-10T01:21:01.777Z,447.00
2024-04-10T01:22:01.775Z,448.00
2024-04-10T01:23:01.798Z,450.00
2024-04-10T01:24:01.762Z,450.00
2024-04-10T01:25:01.780Z,450.00
2024-04-10T01:26:01.833Z,451.00
2024-04-10T01:27:01.788Z,451.00
2024-04-10T01:28:01.784Z,451.00
2024-04-10T01:29:01.819Z,451.00
2024-04-10T01:30:01.814Z,452.00
2024-04-10T01:31:01.805Z,454.00
2024-04-10T01:32:01.802Z,454.00
2024-04-10T01:33:01.933Z,454.00
2024-04-10T01:34:01.876Z,455.00
2024-04-10T01:35:01.878Z,456.00
2024-04-10T01:36:01.799Z,457.00
2024-04-10T01:37:01.815Z,458.00
2024-04-10T01:38:01.824Z,456.00
2024-04-10T01:39:01.809Z,456.00
2024-04-10T01:40:01.848Z,455.00
2024-04-10T01:41:02.830Z,455.00
2024-04-10T01:42:01.823Z,456.00
2024-04-10T01:43:01.813Z,457.00
2024-04-10T01:44:02.797Z,458.00
2024-04-10T01:45:01.821Z,459.00
2024-04-10T01:46:01.831Z,458.00
2024-04-10T01:47:09.863Z,460.00
2024-04-10T01:48:02.059Z,459.00
2024-04-10T01:49:01.943Z,462.00
2024-04-10T01:50:33.426Z,460.00
2024-04-10T01:51:01.851Z,459.00
2024-04-10T01:52:01.849Z,458.00
2024-04-10T01:53:01.884Z,459.00
2024-04-10T01:54:01.843Z,458.00
2024-04-10T01:55:01.864Z,463.00
2024-04-10T01:56:01.907Z,463.00
2024-04-10T01:57:01.873Z,461.00
2024-04-10T01:58:01.854Z,461.00
2024-04-10T01:59:01.904Z,462.00
2024-04-10T02:00:01.860Z,462.00
2024-04-10T02:01:01.947Z,461.00
2024-04-10T02:02:01.908Z,460.00
2024-04-10T02:03:01.884Z,459.00
2024-04-10T02:04:02.059Z,460.00
2024-04-10T02:05:01.975Z,460.00
2024-04-10T02:06:02.775Z,460.00
2024-04-10T02:07:02.065Z,461.00
2024-04-10T02:08:02.186Z,461.00
2024-04-10T02:09:16.766Z,459.00
2024-04-10T02:10:02.424Z,459.00
2024-04-10T02:11:02.552Z,458.00
2024-04-10T02:12:05.360Z,458.00
2024-04-10T02:13:02.491Z,462.00
2024-04-10T02:14:02.498Z,461.00
2024-04-10T02:15:38.271Z,460.00
2024-04-10T02:16:02.524Z,459.00
2024-04-10T02:17:02.624Z,457.00
2024-04-10T02:18:02.694Z,456.00
2024-04-10T02:19:02.495Z,455.00
2024-04-10T02:20:02.561Z,456.00
2024-04-10T02:21:05.040Z,456.00
2024-04-10T02:22:02.502Z,456.00
2024-04-10T02:23:02.577Z,456.00
2024-04-10T02:24:02.534Z,457.00
2024-04-10T02:25:02.524Z,458.00
2024-04-10T02:26:02.565Z,459.00
2024-04-10T02:27:02.517Z,458.00
2024-04-10T02:28:02.518Z,461.00
2024-04-10T02:29:02.602Z,463.00
2024-04-10T02:30:02.559Z,462.00
2024-04-10T02:31:02.534Z,462.00
2024-04-10T02:32:02.597Z,461.00
2024-04-10T02:33:02.695Z,463.00
2024-04-10T02:34:17.400Z,463.00
2024-04-10T02:35:02.665Z,465.00
2024-04-10T02:36:02.544Z,465.00
2024-04-10T02:37:12.624Z,464.00
2024-04-10T02:38:02.582Z,464.00
2024-04-10T02:39:02.545Z,462.00
2024-04-10T02:40:26.286Z,463.00
2024-04-10T02:41:02.598Z,460.00
2024-04-10T02:42:02.555Z,458.00
2024-04-10T02:43:33.842Z,458.00
2024-04-10T02:44:02.583Z,457.00
2024-04-10T02:45:02.560Z,457.00
2024-04-10T02:46:02.646Z,459.00
2024-04-10T02:47:02.595Z,457.00
2024-04-10T02:48:02.572Z,458.00
2024-04-10T02:49:02.564Z,458.00
2024-04-10T02:50:02.620Z,460.00
2024-04-10T02:51:02.581Z,459.00
2024-04-10T02:52:02.574Z,459.00
2024-04-10T02:53:02.674Z,459.00
2024-04-10T02:54:02.581Z,460.00
2024-04-10T02:55:02.579Z,459.00
2024-04-10T02:56:02.609Z,458.00
2024-04-10T02:57:02.599Z,457.00
2024-04-10T02:58:02.595Z,456.00
2024-04-10T02:59:09.336Z,455.00
2024-04-10T03:00:02.591Z,455.00
2024-04-10T03:01:02.642Z,455.00
2024-04-10T03:02:02.651Z,455.00
2024-04-10T03:03:02.635Z,455.00
2024-04-10T03:04:02.679Z,455.00
2024-04-10T03:05:02.719Z,455.00
2024-04-10T03:06:02.613Z,451.00
2024-04-10T03:07:02.601Z,453.00
2024-04-10T03:08:17.360Z,454.00
2024-04-10T03:09:02.597Z,454.00
2024-04-10T03:10:02.624Z,452.00
2024-04-10T03:11:02.775Z,456.00
2024-04-10T03:12:02.712Z,459.00
2024-04-10T03:13:02.599Z,459.00
2024-04-10T03:14:02.665Z,457.00
2024-04-10T03:15:02.608Z,458.00
2024-04-10T03:16:02.607Z,458.00
2024-04-10T03:17:02.791Z,457.00
2024-04-10T03:18:03.409Z,457.00
2024-04-10T03:19:02.607Z,456.00
2024-04-10T03:20:02.721Z,456.00
2024-04-10T03:21:02.612Z,458.00
2024-04-10T03:22:02.607Z,457.00
2024-04-10T03:23:02.722Z,460.00
2024-04-10T03:24:09.928Z,459.00
2024-04-10T03:25:02.624Z,460.00
2024-04-10T03:26:02.704Z,459.00
2024-04-10T03:27:09.307Z,457.00
2024-04-10T03:28:02.623Z,456.00
2024-04-10T03:29:02.702Z,457.00
2024-04-10T03:30:17.336Z,456.00
2024-04-10T03:31:02.628Z,456.00
2024-04-10T03:32:02.711Z,456.00
2024-04-10T03:33:02.722Z,456.00
2024-04-10T03:34:02.812Z,457.00
2024-04-10T03:35:02.737Z,457.00
2024-04-10T03:36:28.807Z,456.00
2024-04-10T03:37:02.644Z,457.00
2024-04-10T03:38:02.712Z,454.00
2024-04-10T03:39:02.654Z,454.00
2024-04-10T03:40:02.674Z,457.00
2024-04-10T03:41:02.715Z,454.00
2024-04-10T03:42:02.666Z,453.00
2024-04-10T03:43:02.669Z,451.00
2024-04-10T03:44:02.754Z,452.00
2024-04-10T03:45:02.782Z,454.00
2024-04-10T03:46:02.863Z,454.00
2024-04-10T03:47:03.025Z,454.00
2024-04-10T03:48:03.197Z,454.00
2024-04-10T03:49:03.133Z,456.00
2024-04-10T03:50:03.179Z,458.00
2024-04-10T03:51:03.222Z,459.00
2024-04-10T03:52:10.319Z,461.00
2024-04-10T03:53:03.306Z,462.00
2024-04-10T03:54:03.283Z,462.00
2024-04-10T03:55:09.808Z,462.00
2024-04-10T03:56:03.403Z,458.00
2024-04-10T03:57:03.286Z,459.00
2024-04-10T03:58:03.820Z,459.00
2024-04-10T03:59:03.361Z,459.00
2024-04-10T04:00:03.289Z,459.00
2024-04-10T04:01:17.875Z,460.00
2024-04-10T04:02:03.639Z,459.00
2024-04-10T04:03:03.723Z,462.00
2024-04-10T04:04:03.687Z,461.00
2024-04-10T04:05:03.717Z,461.00
2024-04-10T04:06:03.737Z,459.00
2024-04-10T04:07:03.806Z,459.00
2024-04-10T04:08:03.873Z,458.00
2024-04-10T04:09:03.943Z,460.00
2024-04-10T04:10:03.953Z,461.00
2024-04-10T04:11:04.097Z,462.00
2024-04-10T04:12:04.465Z,462.00
2024-04-10T04:13:04.092Z,463.00
2024-04-10T04:14:04.196Z,460.00
2024-04-10T04:15:04.192Z,460.00
2024-04-10T04:16:04.319Z,459.00
2024-04-10T04:17:04.376Z,460.00
2024-04-10T04:18:04.432Z,459.00
2024-04-10T04:19:11.560Z,456.00
2024-04-10T04:20:14.246Z,461.00
2024-04-10T04:21:11.571Z,464.00
2024-04-10T04:22:11.575Z,463.00
2024-04-10T04:23:11.612Z,463.00
2024-04-10T04:24:11.571Z,463.00
2024-04-10T04:25:11.571Z,460.00
2024-04-10T04:26:26.210Z,458.00
2024-04-10T04:27:11.867Z,458.00
2024-04-10T04:28:11.891Z,457.00
2024-04-10T04:29:12.050Z,455.00
2024-04-10T04:30:12.020Z,456.00
2024-04-10T04:31:19.201Z,457.00
2024-04-10T04:32:42.936Z,460.00
2024-04-10T04:33:19.355Z,462.00
2024-04-10T04:34:19.265Z,463.00
2024-04-10T04:35:34.099Z,464.00
2024-04-10T04:36:19.218Z,463.00
2024-04-10T04:37:19.220Z,464.00
2024-04-10T04:38:19.258Z,465.00
2024-04-10T04:39:19.214Z,465.00
2024-04-10T04:40:19.217Z,465.00
2024-04-10T04:41:19.322Z,463.00
2024-04-10T04:42:19.231Z,466.00
2024-04-10T04:43:19.230Z,464.00
2024-04-10T04:45:19.247Z,466.00
2024-04-10T04:46:19.350Z,466.00
2024-04-10T04:47:19.334Z,467.00
2024-04-10T04:48:19.390Z,464.00
2024-04-10T04:49:19.239Z,464.00
2024-04-10T04:50:19.272Z,464.00
2024-04-10T04:51:19.251Z,462.00
2024-04-10T04:52:19.245Z,463.00
2024-04-10T04:53:19.288Z,466.00
2024-04-10T04:54:33.806Z,467.00
2024-04-10T04:55:19.426Z,469.00
2024-04-10T04:56:19.524Z,469.00
2024-04-10T04:57:43.306Z,471.00
2024-04-10T04:58:19.559Z,471.00
2024-04-10T04:59:19.590Z,469.00
2024-04-10T05:00:19.569Z,471.00
2024-04-10T05:01:19.579Z,474.00
2024-04-10T05:02:19.627Z,474.00
2024-04-10T05:03:19.762Z,473.00
2024-04-10T05:04:19.660Z,471.00
2024-04-10T05:05:19.617Z,470.00
2024-04-10T05:06:21.337Z,469.00
2024-04-10T05:07:19.578Z,467.00
2024-04-10T05:08:19.620Z,465.00
2024-04-10T05:09:19.577Z,465.00
2024-04-10T05:10:19.582Z,463.00
2024-04-10T05:11:19.776Z,464.00
2024-04-10T05:12:19.662Z,463.00
2024-04-10T05:13:19.583Z,463.00
2024-04-10T05:14:19.672Z,464.00
2024-04-10T05:15:19.589Z,465.00
2024-04-10T05:16:19.686Z,466.00
2024-04-10T05:17:19.751Z,465.00
2024-04-10T05:18:19.794Z,463.00
2024-04-10T05:19:19.814Z,460.00
2024-04-10T05:20:19.928Z,462.00
2024-04-10T05:21:19.937Z,462.00
2024-04-10T05:22:23.325Z,465.00
2024-04-10T05:23:20.082Z,466.00
2024-04-10T05:24:20.024Z,466.00
2024-04-10T05:25:41.023Z,466.00
2024-04-10T05:26:20.369Z,468.00
2024-04-10T05:27:20.022Z,467.00
2024-04-10T05:28:20.031Z,466.00
2024-04-10T05:29:20.076Z,466.00
2024-04-10T05:30:20.025Z,469.00
2024-04-10T05:31:20.329Z,479.00
2024-04-10T05:32:20.066Z,540.00
2024-04-10T05:33:20.226Z,536.00
2024-04-10T05:34:20.080Z,544.00
2024-04-10T05:35:20.137Z,560.00
2024-04-10T05:36:20.329Z,574.00
2024-04-10T05:37:20.366Z,580.00
2024-04-10T05:38:20.092Z,633.00
2024-04-10T05:39:20.042Z,629.00
2024-04-10T05:40:20.114Z,633.00
2024-04-10T05:41:21.868Z,688.00
2024-04-10T05:42:20.335Z,690.00
2024-04-10T05:43:20.056Z,701.00
2024-04-10T05:44:20.079Z,737.00
2024-04-10T05:45:20.079Z,749.00
2024-04-10T05:46:20.081Z,745.00
2024-04-10T05:47:41.434Z,720.00
2024-04-10T05:48:20.344Z,707.00
2024-04-10T05:49:20.268Z,715.00
2024-04-10T05:50:43.897Z,718.00
2024-04-10T05:51:20.249Z,711.00
2024-04-10T05:52:20.235Z,714.00
2024-04-10T05:53:55.834Z,710.00
2024-04-10T05:54:20.227Z,701.00
2024-04-10T05:55:20.092Z,691.00
2024-04-10T05:56:20.128Z,679.00
2024-04-10T05:57:20.105Z,672.00
2024-04-10T05:58:20.090Z,669.00
2024-04-10T05:59:20.138Z,669.00
2024-04-10T06:00:20.112Z,666.00
2024-04-10T06:01:20.151Z,664.00
2024-04-10T06:02:20.166Z,662.00
2024-04-10T06:03:20.288Z,669.00
2024-04-10T06:04:20.153Z,670.00
2024-04-10T06:05:20.244Z,665.00
2024-04-10T06:06:20.107Z,661.00
2024-04-10T06:07:20.105Z,657.00
2024-04-10T06:08:20.179Z,650.00
2024-04-10T06:09:20.107Z,644.00
2024-04-10T06:10:20.106Z,640.00
2024-04-10T06:11:20.155Z,636.00
2024-04-10T06:12:36.419Z,630.00
2024-04-10T06:13:20.133Z,627.00
2024-04-10T06:14:20.143Z,622.00
2024-04-10T06:15:27.341Z,619.00
2024-04-10T06:16:20.184Z,617.00
2024-04-10T06:17:20.184Z,616.00
2024-04-10T06:18:51.344Z,615.00
2024-04-10T06:19:20.153Z,615.00
2024-04-10T06:20:20.315Z,615.00
2024-04-10T06:21:20.150Z,613.00
2024-04-10T06:22:23.292Z,610.00
2024-04-10T06:23:20.313Z,610.00
2024-04-10T06:24:20.156Z,607.00
2024-04-10T06:25:20.158Z,604.00
2024-04-10T06:26:20.201Z,601.00
2024-04-10T06:27:20.157Z,599.00
2024-04-10T06:28:20.157Z,596.00
2024-04-10T06:29:20.210Z,626.00
2024-04-10T06:30:20.156Z,632.00
2024-04-10T06:31:20.165Z,662.00
2024-04-10T06:32:20.477Z,669.00
2024-04-10T06:33:20.461Z,656.00
2024-04-10T06:34:20.232Z,652.00
2024-04-10T06:35:20.222Z,743.00
2024-04-10T06:36:20.171Z,767.00
2024-04-10T06:37:20.168Z,777.00
2024-04-10T06:38:20.383Z,710.00
2024-04-10T06:39:20.171Z,707.00
2024-04-10T06:40:34.850Z,721.00
2024-04-10T06:41:20.245Z,736.00
2024-04-10T06:42:20.181Z,742.00
2024-04-10T06:43:26.854Z,753.00
2024-04-10T06:44:20.191Z,763.00
2024-04-10T06:45:20.174Z,787.00
2024-04-10T06:46:55.459Z,800.00
2024-04-10T06:47:20.336Z,812.00
2024-04-10T06:48:20.370Z,817.00
2024-04-10T06:49:20.315Z,809.00
2024-04-10T06:50:20.242Z,807.00
2024-04-10T06:51:20.195Z,810.00
2024-04-10T06:52:20.183Z,822.00
2024-04-10T06:53:20.332Z,831.00
2024-04-10T06:54:21.465Z,829.00
2024-04-10T06:55:20.192Z,810.00
2024-04-10T06:56:20.227Z,763.00
2024-04-10T06:57:20.197Z,696.00
2024-04-10T06:58:20.209Z,700.00
2024-04-10T06:59:20.298Z,711.00
2024-04-10T07:00:20.301Z,693.00
2024-04-10T07:01:20.375Z,675.00
2024-04-10T07:02:20.314Z,696.00
2024-04-10T07:03:20.328Z,740.00
2024-04-10T07:04:20.373Z,750.00
2024-04-10T07:05:23.504Z,751.00
2024-04-10T07:06:20.391Z,757.00
2024-04-10T07:07:20.392Z,762.00
2024-04-10T07:08:44.517Z,763.00
2024-04-10T07:09:20.395Z,762.00
2024-04-10T07:10:20.410Z,764.00
2024-04-10T07:11:34.963Z,762.00
2024-04-10T07:12:20.785Z,763.00
2024-04-10T07:13:20.632Z,767.00
2024-04-10T07:14:20.726Z,773.00
2024-04-10T07:15:20.646Z,780.00
2024-04-10T07:16:20.716Z,783.00
2024-04-10T07:17:20.852Z,785.00
2024-04-10T07:18:20.765Z,784.00
2024-04-10T07:19:20.782Z,785.00
2024-04-10T07:20:20.769Z,795.00
2024-04-10T07:21:20.748Z,730.00
2024-04-10T07:22:20.765Z,746.00
2024-04-10T07:23:20.818Z,746.00
2024-04-10T07:24:20.797Z,742.00
2024-04-10T07:25:20.818Z,748.00
2024-04-10T07:26:20.905Z,827.00
2024-04-10T07:27:20.867Z,984.00
2024-04-10T07:28:20.886Z,961.00
2024-04-10T07:29:21.015Z,913.00
2024-04-10T07:30:30.741Z,908.00
2024-04-10T07:31:20.945Z,895.00
2024-04-10T07:32:21.028Z,883.00
2024-04-10T07:33:22.014Z,811.00
2024-04-10T07:34:21.036Z,800.00
2024-04-10T07:35:21.032Z,787.00
2024-04-10T07:36:27.884Z,773.00
2024-04-10T07:37:20.967Z,750.00
2024-04-10T07:38:20.994Z,747.00
2024-04-10T07:39:44.876Z,745.00
2024-04-10T07:40:20.984Z,744.00
2024-04-10T07:41:21.017Z,740.00
2024-04-10T07:42:21.010Z,741.00
2024-04-10T07:43:20.987Z,741.00
2024-04-10T07:44:21.032Z,738.00
2024-04-10T07:45:20.992Z,734.00
2024-04-10T07:46:21.003Z,729.00
2024-04-10T07:47:21.114Z,727.00
2024-04-10T07:48:21.152Z,717.00
2024-04-10T07:49:21.077Z,713.00
2024-04-10T07:50:21.023Z,704.00
2024-04-10T07:51:20.999Z,699.00
2024-04-10T07:52:20.997Z,699.00
2024-04-10T07:53:21.080Z,690.00
2024-04-10T07:54:21.005Z,687.00
2024-04-10T07:55:23.886Z,682.00
2024-04-10T07:56:21.031Z,676.00
2024-04-10T07:57:21.010Z,671.00
2024-04-10T07:58:21.038Z,672.00
2024-04-10T07:59:21.043Z,676.00
2024-04-10T08:00:21.019Z,674.00
2024-04-10T08:01:24.456Z,668.00
2024-04-10T08:02:21.111Z,676.00
2024-04-10T08:03:21.180Z,675.00
2024-04-10T08:04:40.410Z,675.00
2024-04-10T08:05:21.058Z,680.00
2024-04-10T08:06:21.043Z,683.00
2024-04-10T08:07:21.033Z,686.00
2024-04-10T08:08:21.112Z,693.00
2024-04-10T08:09:21.027Z,694.00
2024-04-10T08:10:21.034Z,697.00
2024-04-10T08:11:21.502Z,698.00
2024-04-10T08:12:21.196Z,716.00
2024-04-10T08:13:21.040Z,729.00
2024-04-10T08:14:21.126Z,738.00
2024-04-10T08:15:21.055Z,746.00
2024-04-10T08:16:21.098Z,751.00
2024-04-10T08:17:21.076Z,755.00
2024-04-10T08:18:21.111Z,749.00
2024-04-10T08:19:21.077Z,747.00
2024-04-10T08:20:21.081Z,746.00
2024-04-10T08:21:21.065Z,758.00
2024-04-10T08:22:21.060Z,775.00
2024-04-10T08:23:24.137Z,791.00
2024-04-10T08:24:21.063Z,799.00
2024-04-10T08:25:21.062Z,834.00
2024-04-10T08:26:21.452Z,831.00
2024-04-10T08:27:21.062Z,843.00
2024-04-10T08:28:21.077Z,817.00
2024-04-10T08:29:36.473Z,851.00
2024-04-10T08:30:21.070Z,864.00
2024-04-10T08:31:21.089Z,843.00
2024-04-10T08:32:36.143Z,876.00
2024-04-10T08:33:21.157Z,848.00
2024-04-10T08:34:21.160Z,868.00
2024-04-10T08:35:21.236Z,875.00
2024-04-10T08:36:21.120Z,905.00
2024-04-10T08:37:21.095Z,916.00
2024-04-10T08:38:21.146Z,891.00
2024-04-10T08:39:21.091Z,877.00
2024-04-10T08:40:21.160Z,870.00
2024-04-10T08:41:21.090Z,869.00
2024-04-10T08:42:21.099Z,872.00
2024-04-10T08:43:21.140Z,820.00
2024-04-10T08:44:21.100Z,808.00
2024-04-10T08:45:21.100Z,797.00
2024-04-10T08:46:21.102Z,800.00
2024-04-10T08:47:21.151Z,850.00
2024-04-10T08:48:24.104Z,829.00
2024-04-10T08:49:21.095Z,824.00
2024-04-10T08:50:21.108Z,817.00
2024-04-10T08:51:28.929Z,774.00
2024-04-10T08:52:21.100Z,774.00
2024-04-10T08:53:21.100Z,786.00
2024-04-10T08:54:27.932Z,797.00
2024-04-10T08:55:21.100Z,800.00
2024-04-10T08:56:21.118Z,798.00
2024-04-10T08:57:35.949Z,799.00
2024-04-10T08:58:21.112Z,796.00
2024-04-10T08:59:21.125Z,804.00
2024-04-10T09:00:21.174Z,799.00
2024-04-10T09:01:21.274Z,797.00
2024-04-10T09:02:21.122Z,792.00
2024-04-10T09:03:21.375Z,789.00
2024-04-10T09:04:21.261Z,786.00
2024-04-10T09:05:21.197Z,786.00
2024-04-10T09:06:21.174Z,782.00
2024-04-10T09:07:21.129Z,792.00
2024-04-10T09:08:21.141Z,795.00
2024-04-10T09:09:21.149Z,815.00
2024-04-10T09:10:21.187Z,857.00
2024-04-10T09:11:21.178Z,805.00
2024-04-10T09:12:21.158Z,794.00
2024-04-10T09:13:21.152Z,785.00
2024-04-10T09:14:21.138Z,772.00
2024-04-10T09:15:21.142Z,783.00
2024-04-10T09:16:22.007Z,800.00
2024-04-10T09:17:21.247Z,799.00
2024-04-10T09:18:21.176Z,803.00
2024-04-10T09:19:23.996Z,814.00
2024-04-10T09:20:21.163Z,810.00
2024-04-10T09:21:21.163Z,809.00
2024-04-10T09:22:42.170Z,806.00
2024-04-10T09:23:21.187Z,800.00
2024-04-10T09:24:21.172Z,692.00
2024-04-10T09:25:48.944Z,657.00
2024-04-10T09:26:21.279Z,796.00
2024-04-10T09:27:21.187Z,857.00
2024-04-10T09:28:21.174Z,863.00
2024-04-10T09:29:21.208Z,883.00
2024-04-10T09:30:21.191Z,935.00
2024-04-10T09:31:21.189Z,895.00
2024-04-10T09:32:21.275Z,852.00
2024-04-10T09:33:21.347Z,841.00
2024-04-10T09:34:21.358Z,797.00
2024-04-10T09:35:21.262Z,773.00
2024-04-10T09:36:21.204Z,763.00
2024-04-10T09:37:21.198Z,752.00
2024-04-10T09:38:21.253Z,731.00
2024-04-10T09:39:21.222Z,702.00
2024-04-10T09:40:21.200Z,690.00
2024-04-10T09:41:21.943Z,679.00
2024-04-10T09:42:21.209Z,672.00
2024-04-10T09:43:21.208Z,662.00
2024-04-10T09:44:35.953Z,644.00
2024-04-10T09:45:21.216Z,634.00
2024-04-10T09:46:21.239Z,627.00
2024-04-10T09:47:24.488Z,616.00
2024-04-10T09:48:21.380Z,606.00
2024-04-10T09:49:21.265Z,598.00
2024-04-10T09:50:42.257Z,590.00
2024-04-10T09:51:21.251Z,584.00
2024-04-10T09:52:21.237Z,582.00
2024-04-10T09:53:21.244Z,578.00
2024-04-10T09:54:21.226Z,573.00
2024-04-10T09:55:21.280Z,567.00
2024-04-10T09:56:21.317Z,561.00
2024-04-10T09:57:21.232Z,555.00
2024-04-10T09:58:21.247Z,554.00
2024-04-10T09:59:21.946Z,550.00
2024-04-10T10:00:21.239Z,547.00
2024-04-10T10:01:21.255Z,547.00
2024-04-10T10:02:21.385Z,547.00
2024-04-10T10:03:21.387Z,546.00
2024-04-10T10:04:21.283Z,545.00
2024-04-10T10:05:21.399Z,542.00
2024-04-10T10:06:21.320Z,539.00
2024-04-10T10:07:21.249Z,537.00
2024-04-10T10:08:21.305Z,533.00
2024-04-10T10:09:27.942Z,529.00
2024-04-10T10:10:21.258Z,530.00
2024-04-10T10:11:21.334Z,528.00
2024-04-10T10:12:28.780Z,529.00
2024-04-10T10:13:21.268Z,528.00
2024-04-10T10:14:21.269Z,527.00
2024-04-10T10:15:35.990Z,528.00
2024-04-10T10:16:21.480Z,529.00
2024-04-10T10:17:21.283Z,527.00
2024-04-10T10:19:21.405Z,621.00
2024-04-10T10:20:21.329Z,624.00
2024-04-10T10:21:21.299Z,706.00
2024-04-10T10:22:21.280Z,798.00
2024-04-10T10:23:21.312Z,829.00
2024-04-10T10:24:21.289Z,860.00
2024-04-10T10:25:21.292Z,871.00
2024-04-10T10:26:21.353Z,885.00
2024-04-10T10:27:21.293Z,886.00
2024-04-10T10:28:21.303Z,880.00
2024-04-10T10:29:21.336Z,890.00
2024-04-10T10:30:21.386Z,900.00
2024-04-10T10:31:21.304Z,900.00
2024-04-10T10:32:21.359Z,948.00
2024-04-10T10:33:21.603Z,908.00
2024-04-10T10:34:21.379Z,834.00
2024-04-10T10:35:21.390Z,825.00
2024-04-10T10:36:21.367Z,821.00
2024-04-10T10:37:35.952Z,819.00
2024-04-10T10:38:21.361Z,820.00
2024-04-10T10:39:21.315Z,820.00
2024-04-10T10:40:23.950Z,814.00
2024-04-10T10:41:21.400Z,807.00
2024-04-10T10:42:21.325Z,800.00
2024-04-10T10:43:48.948Z,797.00
2024-04-10T10:44:21.433Z,792.00
2024-04-10T10:45:21.328Z,802.00
2024-04-10T10:46:21.338Z,799.00
2024-04-10T10:47:21.422Z,795.00
2024-04-10T10:48:21.399Z,791.00
2024-04-10T10:49:21.367Z,782.00
2024-04-10T10:50:21.411Z,782.00
2024-04-10T10:51:21.350Z,775.00
2024-04-10T10:52:21.350Z,732.00
2024-04-10T10:53:21.376Z,735.00
2024-04-10T10:54:21.347Z,729.00
2024-04-10T10:55:21.353Z,726.00
2024-04-10T10:56:21.428Z,722.00
2024-04-10T10:57:21.377Z,717.00
2024-04-10T10:58:21.382Z,708.00
2024-04-10T10:59:21.486Z,703.00
2024-04-10T11:00:21.379Z,696.00
2024-04-10T11:01:21.465Z,692.00
2024-04-10T11:02:32.063Z,682.00
2024-04-10T11:03:27.942Z,674.00
2024-04-10T11:04:22.574Z,669.00
2024-04-10T11:05:42.450Z,659.00
2024-04-10T11:06:21.443Z,652.00
2024-04-10T11:07:21.389Z,651.00
2024-04-10T11:08:42.574Z,644.00
2024-04-10T11:09:21.389Z,639.00
2024-04-10T11:10:21.387Z,636.00
2024-04-10T11:11:48.546Z,636.00
2024-04-10T11:12:21.515Z,782.00
2024-04-10T11:13:21.406Z,767.00
2024-04-10T11:14:21.449Z,738.00
2024-04-10T11:15:21.405Z,740.00
2024-04-10T11:16:21.484Z,697.00
2024-04-10T11:17:21.655Z,690.00
2024-04-10T11:18:22.053Z,686.00
2024-04-10T11:19:24.115Z,684.00
2024-04-10T11:20:21.451Z,693.00
2024-04-10T11:21:21.420Z,695.00
2024-04-10T11:22:22.373Z,688.00
2024-04-10T11:23:21.570Z,678.00
2024-04-10T11:24:21.427Z,673.00
2024-04-10T11:25:21.419Z,676.00
2024-04-10T11:26:21.492Z,670.00
2024-04-10T11:27:21.491Z,672.00
2024-04-10T11:28:21.439Z,663.00
2024-04-10T11:29:21.514Z,657.00
2024-04-10T11:30:35.969Z,655.00
2024-04-10T11:31:21.580Z,652.00
2024-04-10T11:32:21.635Z,659.00
2024-04-10T11:33:36.620Z,660.00
2024-04-10T11:34:21.746Z,659.00
2024-04-10T11:35:21.674Z,656.00
2024-04-10T11:36:36.472Z,662.00
2024-04-10T11:37:21.613Z,670.00
2024-04-10T11:38:21.637Z,676.00
2024-04-10T11:39:21.620Z,676.00
2024-04-10T11:40:21.617Z,671.00
2024-04-10T11:41:21.652Z,678.00
2024-04-10T11:42:21.623Z,679.00
2024-04-10T11:43:21.635Z,681.00
2024-04-10T11:44:21.681Z,680.00
2024-04-10T11:45:21.628Z,678.00
2024-04-10T11:46:21.649Z,676.00
2024-04-10T11:47:21.739Z,674.00
2024-04-10T11:48:21.729Z,674.00
2024-04-10T11:49:21.694Z,676.00
2024-04-10T11:50:21.730Z,672.00
2024-04-10T11:51:21.635Z,670.00
2024-04-10T11:52:21.983Z,670.00
2024-04-10T11:53:21.691Z,668.00
2024-04-10T11:54:21.633Z,665.00
2024-04-10T11:55:36.503Z,659.00
2024-04-10T11:56:21.659Z,651.00
2024-04-10T11:57:21.642Z,644.00
2024-04-10T11:58:28.495Z,637.00
2024-04-10T11:59:21.668Z,639.00
2024-04-10T12:00:21.638Z,641.00
2024-04-10T12:01:42.689Z,641.00
2024-04-10T12:02:24.107Z,635.00
2024-04-10T12:03:21.716Z,622.00
2024-04-10T12:04:36.526Z,610.00
2024-04-10T12:05:21.758Z,605.00
2024-04-10T12:06:21.880Z,607.00
2024-04-10T12:07:21.673Z,606.00
2024-04-10T12:08:21.728Z,605.00
2024-04-10T12:09:21.662Z,606.00
2024-04-10T12:10:21.677Z,602.00
2024-04-10T12:11:21.771Z,600.00
2024-04-10T12:12:21.785Z,596.00
2024-04-10T12:13:21.672Z,592.00
2024-04-10T12:14:21.698Z,585.00
2024-04-10T12:15:21.671Z,580.00
2024-04-10T12:16:21.667Z,575.00
2024-04-10T12:17:21.851Z,571.00
2024-04-10T12:18:21.813Z,567.00
2024-04-10T12:19:21.729Z,563.00
2024-04-10T12:20:28.535Z,564.00
2024-04-10T12:21:21.685Z,562.00
2024-04-10T12:22:21.691Z,560.00
2024-04-10T12:23:36.557Z,555.00
2024-04-10T12:24:21.703Z,551.00
2024-04-10T12:25:21.728Z,551.00
2024-04-10T12:26:42.751Z,554.00
2024-04-10T12:27:21.709Z,553.00
2024-04-10T12:28:21.715Z,552.00
2024-04-10T12:29:42.757Z,552.00
2024-04-10T12:30:21.750Z,560.00